createdAt,value
2022-10-12T00:00:59.930Z,13.80
2022-10-12T00:03:28.231Z,13.80
2022-10-12T00:06:05.018Z,13.80
2022-10-12T00:08:33.908Z,13.70
2022-10-12T00:11:03.475Z,13.70
2022-10-12T00:13:31.993Z,13.60
2022-10-12T00:16:04.215Z,13.60
2022-10-12T00:18:32.775Z,13.50
2022-10-12T00:21:05.521Z,13.50
2022-10-12T00:23:37.028Z,13.50
2022-10-12T00:26:09.658Z,13.50
2022-10-12T00:28:38.277Z,13.50
2022-10-12T00:31:09.342Z,13.50
2022-10-12T00:33:38.547Z,13.40
2022-10-12T00:36:15.739Z,13.40
2022-10-12T00:38:43.917Z,13.30
2022-10-12T00:41:16.491Z,13.30
2022-10-12T00:43:46.528Z,13.30
2022-10-12T00:46:22.041Z,13.20
2022-10-12T00:48:55.860Z,13.20
2022-10-12T00:51:24.708Z,13.20
2022-10-12T00:53:57.328Z,13.20
2022-10-12T00:56:31.626Z,13.10
2022-10-12T00:59:04.362Z,13.10
2022-10-12T01:01:36.087Z,13.10
2022-10-12T01:04:05.406Z,13.10
2022-10-12T01:06:34.983Z,13.00
2022-10-12T01:09:05.194Z,13.00
2022-10-12T01:11:34.683Z,13.00
2022-10-12T01:14:03.011Z,12.90
2022-10-12T01:16:40.047Z,12.90
2022-10-12T01:19:26.850Z,12.80
2022-10-12T01:22:02.935Z,12.80
2022-10-12T01:24:45.747Z,12.70
2022-10-12T01:27:31.696Z,12.70
2022-10-12T01:30:23.083Z,12.60
2022-10-12T01:33:12.062Z,12.50
2022-10-12T01:35:49.423Z,12.50
2022-10-12T01:38:33.785Z,12.50
2022-10-12T01:41:09.453Z,12.50
2022-10-12T01:43:40.087Z,12.40
2022-10-12T01:46:45.755Z,12.40
2022-10-12T01:49:18.133Z,12.30
2022-10-12T01:52:14.842Z,12.30
2022-10-12T01:54:57.668Z,12.20
2022-10-12T01:57:34.572Z,12.20
2022-10-12T02:00:07.731Z,12.10
2022-10-12T02:02:48.196Z,12.10
2022-10-12T02:05:26.093Z,12.00
2022-10-12T02:07:59.416Z,12.00
2022-10-12T02:10:34.684Z,12.00
2022-10-12T02:13:07.967Z,11.90
2022-10-12T02:15:38.695Z,11.80
2022-10-12T02:18:10.614Z,11.80
2022-10-12T02:20:41.513Z,11.70
2022-10-12T02:23:11.292Z,11.70
2022-10-12T02:25:40.740Z,11.70
2022-10-12T02:28:12.775Z,11.60
2022-10-12T02:30:50.167Z,11.50
2022-10-12T02:33:27.235Z,11.50
2022-10-12T02:36:01.943Z,11.40
2022-10-12T02:38:34.015Z,11.40
2022-10-12T02:41:06.910Z,11.30
2022-10-12T02:43:40.275Z,11.30
2022-10-12T02:46:11.521Z,11.30
2022-10-12T02:48:42.747Z,11.20
2022-10-12T02:51:12.617Z,11.20
2022-10-12T02:53:41.426Z,11.20
2022-10-12T02:56:14.452Z,11.10
2022-10-12T02:58:45.655Z,11.00
2022-10-12T03:01:16.828Z,11.00
2022-10-12T03:03:47.140Z,11.00
2022-10-12T03:06:15.433Z,11.00
2022-10-12T03:08:43.479Z,11.00
2022-10-12T03:11:14.196Z,11.00
2022-10-12T03:13:42.375Z,11.00
2022-10-12T03:16:12.408Z,11.10
2022-10-12T03:18:41.083Z,11.10
2022-10-12T03:21:10.820Z,11.10
2022-10-12T03:23:38.886Z,11.20
2022-10-12T03:26:07.733Z,11.20
2022-10-12T03:28:36.047Z,11.20
2022-10-12T03:31:04.848Z,11.20
2022-10-12T03:33:32.943Z,11.20
2022-10-12T03:36:01.009Z,11.30
2022-10-12T03:38:30.445Z,11.30
2022-10-12T03:41:01.770Z,11.30
2022-10-12T03:43:32.320Z,11.30
2022-10-12T03:46:00.398Z,11.40
2022-10-12T03:48:28.581Z,11.40
2022-10-12T03:50:56.654Z,11.50
2022-10-12T03:53:24.722Z,11.50
2022-10-12T03:55:54.189Z,11.50
2022-10-12T03:58:22.248Z,11.50
2022-10-12T04:00:53.760Z,11.50
2022-10-12T04:03:21.986Z,11.50
2022-10-12T04:05:55.332Z,11.60
2022-10-12T04:08:26.619Z,11.60
2022-10-12T04:10:56.304Z,11.60
2022-10-12T04:13:24.396Z,11.60
2022-10-12T04:15:52.600Z,11.60
2022-10-12T04:18:20.726Z,11.60
2022-10-12T04:20:49.960Z,11.60
2022-10-12T04:23:18.205Z,11.60
2022-10-12T04:25:46.298Z,11.50
2022-10-12T04:28:15.862Z,11.50
2022-10-12T04:30:44.044Z,11.50
2022-10-12T04:33:12.434Z,11.50
2022-10-12T04:35:40.472Z,11.50
2022-10-12T04:38:08.581Z,11.50
2022-10-12T04:40:36.760Z,11.50
2022-10-12T04:43:04.888Z,11.40
2022-10-12T04:45:34.291Z,11.40
2022-10-12T04:48:02.372Z,11.40
2022-10-12T04:50:30.419Z,11.40
2022-10-12T04:52:58.620Z,11.50
2022-10-12T04:55:27.434Z,11.50
2022-10-12T04:57:55.519Z,11.50
2022-10-12T05:00:23.588Z,11.50
2022-10-12T05:02:53.029Z,11.60
2022-10-12T05:05:21.101Z,11.60
2022-10-12T05:07:49.195Z,11.60
2022-10-12T05:10:17.795Z,11.60
2022-10-12T05:12:45.877Z,11.60
2022-10-12T05:15:14.007Z,11.70
2022-10-12T05:17:42.180Z,11.70
2022-10-12T05:20:12.698Z,11.70
2022-10-12T05:22:40.804Z,11.70
2022-10-12T05:25:10.603Z,11.80
2022-10-12T05:27:39.141Z,11.70
2022-10-12T05:30:09.373Z,11.70
2022-10-12T05:32:37.864Z,11.60
2022-10-12T05:35:07.403Z,11.60
2022-10-12T05:37:37.313Z,11.60
2022-10-12T05:40:07.396Z,11.70
2022-10-12T05:42:35.974Z,11.70
2022-10-12T05:45:05.423Z,11.70
2022-10-12T05:47:33.513Z,11.70
2022-10-12T05:50:01.615Z,11.70
2022-10-12T05:52:29.799Z,11.70
2022-10-12T05:54:59.226Z,11.80
2022-10-12T05:57:27.301Z,11.80
2022-10-12T05:59:55.391Z,11.80
2022-10-12T06:02:23.501Z,11.80
2022-10-12T06:04:51.553Z,11.80
2022-10-12T06:07:19.869Z,11.80
2022-10-12T06:09:49.062Z,11.80
2022-10-12T06:12:18.492Z,11.80
2022-10-12T06:14:46.590Z,11.90
2022-10-12T06:17:14.706Z,11.90
2022-10-12T06:19:42.806Z,11.90
2022-10-12T06:22:10.931Z,11.90
2022-10-12T06:24:39.308Z,12.00
2022-10-12T06:27:07.656Z,12.10
2022-10-12T06:29:38.195Z,12.10
2022-10-12T06:32:06.391Z,12.20
2022-10-12T06:34:34.488Z,12.20
2022-10-12T06:37:02.564Z,12.30
2022-10-12T06:39:30.702Z,12.30
2022-10-12T06:41:58.759Z,12.30
2022-10-12T06:44:29.584Z,12.40
2022-10-12T06:46:59.003Z,12.40
2022-10-12T06:49:27.104Z,12.50
2022-10-12T06:51:55.195Z,12.50
2022-10-12T06:54:23.383Z,12.60
2022-10-12T06:56:55.351Z,12.70
2022-10-12T06:59:26.033Z,12.80
2022-10-12T07:01:54.184Z,12.80
2022-10-12T07:04:23.648Z,12.90
2022-10-12T07:06:51.803Z,13.10
2022-10-12T07:09:19.935Z,13.10
2022-10-12T07:11:48.046Z,13.20
2022-10-12T07:14:16.356Z,13.30
2022-10-12T07:16:44.450Z,13.40
2022-10-12T07:19:12.515Z,13.50
2022-10-12T07:21:41.987Z,13.50
2022-10-12T07:24:13.342Z,13.60
2022-10-12T07:26:41.470Z,13.70
2022-10-12T07:29:09.661Z,13.90
2022-10-12T07:31:38.704Z,14.00
2022-10-12T07:34:06.782Z,14.00
2022-10-12T07:36:57.520Z,14.20
2022-10-12T07:39:24.934Z,14.30
2022-10-12T07:41:53.760Z,14.30
2022-10-12T07:44:22.510Z,14.40
2022-10-12T07:46:50.809Z,14.50
2022-10-12T07:49:19.389Z,15.00
2022-10-12T07:51:47.512Z,15.50
2022-10-12T07:54:20.352Z,15.80
2022-10-12T07:56:51.385Z,16.00
2022-10-12T07:59:19.549Z,16.20
2022-10-12T08:01:47.690Z,16.30
2022-10-12T08:04:15.942Z,16.30
2022-10-12T08:06:44.700Z,16.40
2022-10-12T08:09:12.827Z,16.60
2022-10-12T08:11:42.254Z,17.00
2022-10-12T08:14:16.102Z,17.10
2022-10-12T08:16:45.262Z,17.20
2022-10-12T08:19:13.924Z,17.30
2022-10-12T08:21:42.712Z,17.40
2022-10-12T08:24:11.319Z,17.50
2022-10-12T08:26:40.270Z,17.50
2022-10-12T08:29:09.389Z,17.70
2022-10-12T08:31:38.876Z,18.00
2022-10-12T08:34:07.074Z,18.20
2022-10-12T08:36:35.369Z,18.30
2022-10-12T08:39:06.730Z,18.40
2022-10-12T08:41:49.257Z,18.50
2022-10-12T08:44:37.731Z,18.60
2022-10-12T08:47:14.824Z,19.00
2022-10-12T08:49:49.706Z,19.10
2022-10-12T08:52:29.074Z,19.20
2022-10-12T08:55:05.149Z,19.30
2022-10-12T08:57:35.306Z,19.70
2022-10-12T09:00:04.258Z,20.70
2022-10-12T09:02:50.865Z,21.70
2022-10-12T09:05:25.245Z,22.50
2022-10-12T09:08:01.035Z,23.20
2022-10-12T09:10:45.251Z,24.10
2022-10-12T09:13:28.419Z,24.80
2022-10-12T09:16:01.587Z,24.80
2022-10-12T09:18:41.036Z,24.40
2022-10-12T09:21:15.079Z,25.30
2022-10-12T09:23:44.519Z,25.60
2022-10-12T09:26:17.966Z,25.40
2022-10-12T09:28:49.916Z,26.00
2022-10-12T09:31:38.403Z,25.70
2022-10-12T09:34:10.095Z,25.40
2022-10-12T09:36:41.511Z,24.90
2022-10-12T09:39:18.281Z,24.40
2022-10-12T09:41:48.959Z,23.90
2022-10-12T09:44:25.343Z,23.20
2022-10-12T09:46:58.535Z,22.70
2022-10-12T09:49:42.730Z,22.50
2022-10-12T09:52:12.123Z,22.10
2022-10-12T09:54:46.586Z,21.90
2022-10-12T09:57:20.930Z,21.80
2022-10-12T09:59:50.040Z,21.50
2022-10-12T10:02:21.278Z,21.30
2022-10-12T10:04:53.065Z,20.90
2022-10-12T10:07:28.631Z,20.70
2022-10-12T10:10:16.731Z,20.60
2022-10-12T10:12:51.621Z,20.20
2022-10-12T10:15:24.813Z,20.20
2022-10-12T10:17:55.823Z,20.10
2022-10-12T10:20:33.087Z,19.90
2022-10-12T10:23:01.714Z,19.80
2022-10-12T10:25:29.994Z,19.70
2022-10-12T10:28:22.884Z,19.50
2022-10-12T10:31:02.417Z,19.40
2022-10-12T10:33:31.957Z,19.30
2022-10-12T10:36:06.390Z,19.10
2022-10-12T10:38:52.840Z,19.20
2022-10-12T10:41:21.735Z,19.20
2022-10-12T10:43:51.046Z,19.20
2022-10-12T10:46:25.346Z,19.10
2022-10-12T10:48:58.870Z,19.10
2022-10-12T10:51:44.679Z,19.00
2022-10-12T10:54:18.207Z,18.70
2022-10-12T10:56:47.596Z,18.70
2022-10-12T10:59:29.343Z,18.60
2022-10-12T11:02:01.712Z,18.50
2022-10-12T11:04:36.641Z,18.40
2022-10-12T11:07:19.204Z,18.40
2022-10-12T11:09:54.275Z,18.10
2022-10-12T11:12:31.250Z,18.00
2022-10-12T11:15:13.004Z,17.90
2022-10-12T11:17:48.469Z,17.90
2022-10-12T11:20:35.571Z,17.90
2022-10-12T11:23:16.064Z,18.00
2022-10-12T11:25:56.746Z,18.00
2022-10-12T11:28:28.281Z,18.10
2022-10-12T11:30:56.762Z,18.20
2022-10-12T11:33:29.398Z,18.30
2022-10-12T11:35:59.468Z,18.30
2022-10-12T11:38:33.044Z,18.30
2022-10-12T11:41:33.822Z,18.20
2022-10-12T11:44:02.698Z,18.20
2022-10-12T11:46:36.145Z,18.10
2022-10-12T11:49:10.327Z,18.00
2022-10-12T11:51:38.476Z,18.00
2022-10-12T11:54:17.118Z,18.10
2022-10-12T11:56:50.267Z,18.20
2022-10-12T11:59:26.763Z,18.20
2022-10-12T12:02:06.896Z,18.30
2022-10-12T12:04:42.157Z,18.40
2022-10-12T12:07:45.253Z,18.50
2022-10-12T12:10:53.045Z,18.40
2022-10-12T12:13:26.932Z,18.40
2022-10-12T12:16:32.907Z,18.40
2022-10-12T12:19:38.448Z,18.50
2022-10-12T12:22:31.828Z,18.50
2022-10-12T12:25:31.165Z,18.50
2022-10-12T12:28:17.523Z,18.60
2022-10-12T12:30:58.826Z,18.70
2022-10-12T12:33:31.485Z,18.90
2022-10-12T12:36:04.622Z,19.00
2022-10-12T12:38:35.204Z,19.20
2022-10-12T12:41:07.875Z,19.30
2022-10-12T12:44:03.943Z,19.40
2022-10-12T12:47:44.536Z,19.50
2022-10-12T12:50:36.648Z,19.60
2022-10-12T12:53:15.026Z,19.70
2022-10-12T12:56:06.524Z,19.80
2022-10-12T12:58:54.666Z,19.80
2022-10-12T13:01:47.428Z,20.10
2022-10-12T13:04:46.650Z,20.20
2022-10-12T13:07:47.667Z,20.10
2022-10-12T13:10:29.435Z,20.10
2022-10-12T13:13:38.731Z,20.10
2022-10-12T13:17:09.557Z,20.20
2022-10-12T13:19:17.572Z,20.20
2022-10-12T13:21:51.276Z,20.10
2022-10-12T13:24:26.363Z,20.20
2022-10-12T13:26:59.895Z,20.60
2022-10-12T13:29:36.739Z,21.60
2022-10-12T13:32:15.153Z,21.90
2022-10-12T13:34:48.378Z,22.30
2022-10-12T13:37:18.047Z,22.00
2022-10-12T13:39:47.288Z,21.90
2022-10-12T13:42:19.487Z,21.60
2022-10-12T13:44:49.216Z,21.50
2022-10-12T13:47:27.616Z,21.80
2022-10-12T13:49:57.791Z,22.90
2022-10-12T13:52:32.059Z,23.80
2022-10-12T13:55:02.449Z,24.60
2022-10-12T13:57:36.555Z,25.40
2022-10-12T14:00:18.588Z,25.70
2022-10-12T14:02:58.076Z,25.80
2022-10-12T14:05:29.000Z,26.10
2022-10-12T14:08:06.746Z,26.20
2022-10-12T14:10:37.856Z,26.60
2022-10-12T14:13:06.907Z,27.20
2022-10-12T14:15:38.577Z,27.40
2022-10-12T14:18:40.039Z,27.50
2022-10-12T14:21:25.529Z,27.80
2022-10-12T14:23:56.224Z,27.70
2022-10-12T14:26:30.061Z,27.30
2022-10-12T14:28:59.851Z,26.90
2022-10-12T14:31:54.756Z,26.70
2022-10-12T14:34:46.482Z,26.30
2022-10-12T14:37:38.674Z,26.20
2022-10-12T14:40:39.953Z,26.40
2022-10-12T14:43:24.094Z,26.70
2022-10-12T14:45:54.962Z,26.70
2022-10-12T14:48:23.997Z,26.40
2022-10-12T14:50:54.215Z,26.30
2022-10-12T14:53:22.435Z,26.20
2022-10-12T14:55:53.764Z,26.40
2022-10-12T14:58:22.828Z,26.50
2022-10-12T15:00:51.120Z,26.30
2022-10-12T15:03:20.211Z,26.10
2022-10-12T15:05:48.304Z,25.80
2022-10-12T15:08:17.790Z,25.90
2022-10-12T15:10:46.846Z,25.60
2022-10-12T15:13:15.065Z,24.80
2022-10-12T15:15:47.326Z,24.70
2022-10-12T15:18:15.722Z,24.40
2022-10-12T15:20:49.022Z,23.90
2022-10-12T15:23:19.056Z,23.40
2022-10-12T15:25:54.219Z,22.80
2022-10-12T15:28:23.613Z,22.50
2022-10-12T15:31:16.062Z,22.40
2022-10-12T15:33:41.416Z,22.20
2022-10-12T15:36:10.732Z,22.10
2022-10-12T15:38:40.422Z,22.10
2022-10-12T15:41:17.828Z,22.20
2022-10-12T15:43:45.906Z,22.10
2022-10-12T15:46:14.297Z,22.00
2022-10-12T15:48:43.882Z,21.80
2022-10-12T15:51:18.352Z,21.60
2022-10-12T15:53:47.794Z,21.30
2022-10-12T15:56:18.314Z,21.00
2022-10-12T15:58:47.387Z,20.70
2022-10-12T16:01:21.049Z,20.40
2022-10-12T16:03:50.134Z,20.10
2022-10-12T16:06:18.506Z,19.90
2022-10-12T16:08:48.111Z,19.70
2022-10-12T16:11:18.772Z,19.40
2022-10-12T16:13:53.848Z,19.20
2022-10-12T16:16:24.860Z,18.90
2022-10-12T16:18:54.155Z,18.70
2022-10-12T16:21:22.515Z,18.50
2022-10-12T16:23:52.087Z,18.40
2022-10-12T16:26:20.318Z,18.20
2022-10-12T16:28:48.577Z,18.10
2022-10-12T16:31:18.341Z,18.00
2022-10-12T16:33:46.701Z,17.80
2022-10-12T16:36:17.299Z,17.70
2022-10-12T16:38:45.818Z,17.50
2022-10-12T16:41:18.569Z,17.40
2022-10-12T16:43:46.760Z,17.30
2022-10-12T16:46:14.848Z,17.30
2022-10-12T16:48:48.946Z,17.10
2022-10-12T16:51:17.117Z,17.00
2022-10-12T16:53:45.234Z,16.90
2022-10-12T16:56:14.706Z,16.80
2022-10-12T16:58:42.800Z,16.70
2022-10-12T17:01:12.970Z,16.50
2022-10-12T17:03:41.578Z,16.40
2022-10-12T17:06:10.600Z,16.30
2022-10-12T17:08:39.796Z,16.30
2022-10-12T17:11:10.002Z,16.20
2022-10-12T17:13:44.174Z,16.00
2022-10-12T17:16:33.943Z,15.90
2022-10-12T17:19:02.122Z,15.80
2022-10-12T17:21:30.308Z,15.80
2022-10-12T17:23:59.645Z,15.70
2022-10-12T17:26:28.452Z,15.70
2022-10-12T17:28:57.982Z,15.50
2022-10-12T17:31:26.201Z,15.40
2022-10-12T17:33:54.547Z,15.30
2022-10-12T17:36:27.839Z,15.20
2022-10-12T17:38:58.153Z,15.10
2022-10-12T17:41:28.666Z,14.90
2022-10-12T17:43:58.799Z,14.80
2022-10-12T17:46:27.994Z,14.70
2022-10-12T17:48:57.480Z,14.70
2022-10-12T17:51:25.949Z,14.60
2022-10-12T17:53:54.351Z,14.50
2022-10-12T17:56:22.718Z,14.40
2022-10-12T17:58:56.718Z,14.40
2022-10-12T18:01:25.888Z,14.20
2022-10-12T18:03:55.328Z,14.20
2022-10-12T18:06:25.579Z,14.10
2022-10-12T18:08:55.019Z,14.00
2022-10-12T18:11:23.884Z,13.90
2022-10-12T18:13:55.471Z,13.80
2022-10-12T18:16:27.449Z,13.70
2022-10-12T18:18:56.938Z,13.70
2022-10-12T18:21:27.808Z,13.60
2022-10-12T18:23:56.139Z,13.50
2022-10-12T18:26:24.959Z,13.40
2022-10-12T18:28:55.506Z,13.40
2022-10-12T18:31:27.607Z,13.30
2022-10-12T18:33:58.086Z,13.20
2022-10-12T18:36:27.168Z,13.20
2022-10-12T18:38:56.294Z,13.20
2022-10-12T18:41:26.799Z,13.10
2022-10-12T18:43:59.879Z,13.10
2022-10-12T18:46:34.769Z,13.00
2022-10-12T18:49:05.240Z,13.00
2022-10-12T18:51:35.371Z,13.00
2022-10-12T18:54:04.952Z,12.90
2022-10-12T18:56:36.209Z,12.90
2022-10-12T18:59:05.162Z,12.90
2022-10-12T19:01:35.333Z,12.80
2022-10-12T19:04:05.558Z,12.80
2022-10-12T19:06:37.748Z,12.80
2022-10-12T19:09:06.369Z,12.70
2022-10-12T19:11:36.731Z,12.70
2022-10-12T19:14:07.494Z,12.70
2022-10-12T19:16:37.555Z,12.60
2022-10-12T19:19:08.685Z,12.60
2022-10-12T19:21:36.863Z,12.60
2022-10-12T19:24:06.508Z,12.50
2022-10-12T19:26:35.716Z,12.50
2022-10-12T19:29:04.506Z,12.50
2022-10-12T19:31:37.643Z,12.50
2022-10-12T19:34:08.827Z,12.50
2022-10-12T19:36:38.567Z,12.60
2022-10-12T19:39:09.937Z,12.60
2022-10-12T19:41:38.039Z,12.60
2022-10-12T19:44:06.940Z,12.50
2022-10-12T19:46:36.400Z,12.50
2022-10-12T19:49:04.720Z,12.50
2022-10-12T19:51:33.536Z,12.50
2022-10-12T19:54:04.837Z,12.50
2022-10-12T19:56:33.808Z,12.50
2022-10-12T19:59:01.967Z,12.50
2022-10-12T20:01:33.311Z,12.50
2022-10-12T20:04:05.404Z,12.50
2022-10-12T20:06:33.727Z,12.50
2022-10-12T20:09:03.083Z,12.50
2022-10-12T20:11:31.981Z,12.50
2022-10-12T20:14:00.734Z,12.50
2022-10-12T20:16:34.658Z,12.50
2022-10-12T20:19:04.999Z,12.40
2022-10-12T20:21:33.546Z,12.40
2022-10-12T20:24:01.700Z,12.50
2022-10-12T20:26:29.891Z,12.50
2022-10-12T20:28:58.150Z,12.50
2022-10-12T20:31:27.907Z,12.50
2022-10-12T20:33:58.119Z,12.50
2022-10-12T20:36:30.859Z,12.50
2022-10-12T20:38:59.957Z,12.50
2022-10-12T20:41:28.785Z,12.40
2022-10-12T20:43:57.819Z,12.40
2022-10-12T20:46:26.577Z,12.30
2022-10-12T20:48:58.859Z,12.30
2022-10-12T20:51:32.438Z,12.20
2022-10-12T20:54:01.410Z,12.20
2022-10-12T20:56:29.977Z,12.10
2022-10-12T20:58:58.662Z,12.10
2022-10-12T21:01:28.150Z,12.10
2022-10-12T21:03:56.388Z,12.00
2022-10-12T21:06:24.973Z,12.00
2022-10-12T21:08:56.773Z,12.00
2022-10-12T21:11:27.032Z,11.90
2022-10-12T21:13:56.458Z,11.80
2022-10-12T21:16:26.943Z,11.70
2022-10-12T21:18:55.847Z,11.70
2022-10-12T21:21:24.962Z,11.60
2022-10-12T21:23:56.892Z,11.50
2022-10-12T21:26:27.245Z,11.40
2022-10-12T21:28:55.691Z,11.40
2022-10-12T21:31:28.162Z,11.40
2022-10-12T21:33:59.960Z,11.30
2022-10-12T21:36:29.770Z,11.30
2022-10-12T21:38:59.468Z,11.20
2022-10-12T21:41:30.048Z,11.20
2022-10-12T21:43:59.412Z,11.20
2022-10-12T21:46:30.743Z,11.10
2022-10-12T21:49:00.531Z,11.10
2022-10-12T21:51:30.923Z,11.00
2022-10-12T21:54:00.379Z,11.00
2022-10-12T21:56:31.181Z,11.00
2022-10-12T21:59:01.435Z,10.90
2022-10-12T22:01:34.469Z,11.00
2022-10-12T22:04:04.958Z,10.90
2022-10-12T22:06:33.103Z,10.90
2022-10-12T22:09:07.335Z,10.80
2022-10-12T22:11:37.374Z,10.80
2022-10-12T22:14:12.635Z,10.80
2022-10-12T22:16:43.128Z,10.70
2022-10-12T22:19:15.328Z,10.70
2022-10-12T22:21:43.391Z,10.70
2022-10-12T22:24:13.097Z,10.70
2022-10-12T22:26:41.486Z,10.60
2022-10-12T22:29:10.446Z,10.60
2022-10-12T22:31:41.631Z,10.60
2022-10-12T22:34:11.680Z,10.50
2022-10-12T22:36:39.871Z,10.50
2022-10-12T22:39:09.568Z,10.40
2022-10-12T22:41:38.972Z,10.30
2022-10-12T22:44:07.500Z,10.30
2022-10-12T22:46:35.723Z,10.20
2022-10-12T22:49:04.184Z,10.20
2022-10-12T22:51:35.378Z,10.20
2022-10-12T22:54:04.415Z,10.20
2022-10-12T22:56:33.113Z,10.10
2022-10-12T22:59:06.977Z,10.20
2022-10-12T23:01:36.113Z,10.10
2022-10-12T23:04:04.266Z,10.10
2022-10-12T23:06:32.487Z,10.10
2022-10-12T23:09:00.988Z,10.10
2022-10-12T23:11:31.630Z,10.10
2022-10-12T23:14:00.031Z,10.00
2022-10-12T23:16:33.767Z,10.00
2022-10-12T23:19:05.109Z,10.00
2022-10-12T23:21:35.116Z,10.00
2022-10-12T23:24:05.659Z,9.90
2022-10-12T23:26:34.824Z,9.90
2022-10-12T23:29:03.048Z,9.90
2022-10-12T23:31:35.447Z,9.80
2022-10-12T23:34:06.248Z,9.80
2022-10-12T23:36:35.394Z,9.80
2022-10-12T23:39:05.593Z,9.70
2022-10-12T23:41:33.845Z,9.70
2022-10-12T23:44:01.916Z,9.70
2022-10-12T23:46:30.565Z,9.60
2022-10-12T23:49:00.303Z,9.60
2022-10-12T23:51:28.429Z,9.60
2022-10-12T23:53:56.530Z,9.60
2022-10-12T23:56:24.749Z,9.50
2022-10-12T23:58:52.845Z,9.50
